Time;durP1;ratioP1;P1;durP2;ratioP2;P2;SDS_P1;SDS_P2;PMS_P1;PMS_P2;Temp;Humidity;BMP_temperature;BMP_pressure;BME280_temperature;BME280_humidity;BME280_pressure;Samples;Min_cycle;Max_cycle;Signal;HPM_P1;HPM_P2
2023/12/05 00:01:37;;;;;;;38.58;18.83;;;;;;;-0.56;100.00;100467.41;5071859;28;20048;-43
2023/12/05 00:04:06;;;;;;;36.17;18.52;;;;;;;-0.57;100.00;100465.69;5071731;28;20080;-40
2023/12/05 00:06:37;;;;;;;32.58;17.63;;;;;;;-0.37;100.00;100460.19;5070438;28;20117;-40
2023/12/05 00:09:07;;;;;;;35.13;17.83;;;;;;;-0.41;100.00;100461.09;5071452;28;20052;-41
2023/12/05 00:11:39;;;;;;;36.03;18.08;;;;;;;-0.48;100.00;100477.78;5071694;28;20131;-41
2023/12/05 00:14:08;;;;;;;31.55;16.35;;;;;;;-0.51;100.00;100467.34;5070135;28;20064;-41
2023/12/05 00:16:36;;;;;;;32.80;17.63;;;;;;;-0.26;100.00;100465.31;5071609;28;20135;-41
2023/12/05 00:19:07;;;;;;;35.95;18.27;;;;;;;-0.47;100.00;100459.44;5070195;28;20072;-41
2023/12/05 00:21:36;;;;;;;34.97;18.77;;;;;;;-0.68;100.00;100463.16;5071311;28;20132;-41
2023/12/05 00:24:06;;;;;;;35.63;18.15;;;;;;;-0.67;100.00;100464.06;5071528;28;20634;-41
2023/12/05 00:26:35;;;;;;;36.88;18.80;;;;;;;-0.75;100.00;100460.66;5071083;28;20067;-42
2023/12/05 00:29:04;;;;;;;38.90;18.92;;;;;;;-0.60;100.00;100461.31;5071700;28;20051;-40
2023/12/05 00:31:36;;;;;;;36.97;18.88;;;;;;;-0.54;100.00;100470.88;5071293;28;20048;-40
2023/12/05 00:34:04;;;;;;;32.97;17.60;;;;;;;-0.56;100.00;100469.16;5071548;28;20080;-42
2023/12/05 00:36:36;;;;;;;37.75;18.70;;;;;;;-0.47;100.00;100466.44;5072929;28;20045;-41
2023/12/05 00:39:05;;;;;;;34.55;18.08;;;;;;;-0.33;100.00;100464.50;5073476;28;20078;-42
2023/12/05 00:41:34;;;;;;;35.85;18.45;;;;;;;-0.55;100.00;100458.66;5071988;28;20047;-41
2023/12/05 00:44:03;;;;;;;34.50;17.58;;;;;;;-0.33;100.00;100465.38;5071366;28;20132;-42
2023/12/05 00:46:31;;;;;;;35.15;18.13;;;;;;;-0.42;100.00;100457.63;5071332;28;20059;-42
2023/12/05 00:49:00;;;;;;;33.42;17.83;;;;;;;-0.52;100.00;100465.63;5071285;28;20478;-41
2023/12/05 00:51:28;;;;;;;36.55;18.42;;;;;;;-0.67;100.00;100462.28;5071487;28;20143;-41
2023/12/05 00:53:57;;;;;;;33.13;18.23;;;;;;;-0.56;100.00;100471.78;5071488;28;20470;-42
2023/12/05 00:56:28;;;;;;;36.33;18.50;;;;;;;-0.57;100.00;100456.94;5071363;28;20055;-41
2023/12/05 00:58:58;;;;;;;33.40;18.58;;;;;;;-0.61;100.00;100462.22;5071139;28;20045;-41
2023/12/05 01:01:26;;;;;;;32.05;17.48;;;;;;;-0.57;100.00;100459.56;5071033;28;20056;-41
2023/12/05 01:03:57;;;;;;;37.85;18.45;;;;;;;-0.63;100.00;100460.50;5071091;28;20056;-41
2023/12/05 01:06:26;;;;;;;34.95;18.25;;;;;;;-0.63;100.00;100466.59;5071369;28;20132;-41
2023/12/05 01:08:54;;;;;;;39.70;18.77;;;;;;;-0.49;100.00;100462.94;5071018;28;20045;-41
2023/12/05 01:11:23;;;;;;;37.60;18.02;;;;;;;-0.62;100.00;100462.22;5072362;28;20044;-41
2023/12/05 01:13:51;;;;;;;36.63;18.00;;;;;;;-0.43;100.00;100462.88;5074830;28;20331;-42
2023/12/05 01:16:21;;;;;;;37.67;18.45;;;;;;;-0.33;100.00;100465.38;5075251;28;20048;-41
2023/12/05 01:18:49;;;;;;;33.63;17.60;;;;;;;-0.39;100.00;100464.56;5075074;28;20088;-40
2023/12/05 01:21:18;;;;;;;35.45;17.45;;;;;;;-0.68;100.00;100463.16;5075080;28;20048;-40
2023/12/05 01:23:47;;;;;;;35.53;18.60;;;;;;;-0.63;100.00;100461.38;5074737;28;20060;-41
2023/12/05 01:26:15;;;;;;;34.80;17.92;;;;;;;-0.60;100.00;100458.69;5074621;28;20500;-41
2023/12/05 01:28:43;;;;;;;37.33;18.20;;;;;;;-0.59;100.00;100462.19;5074685;28;20431;-41
2023/12/05 01:31:12;;;;;;;30.60;16.88;;;;;;;-0.57;100.00;100454.34;5074949;28;20459;-40
2023/12/05 01:33:41;;;;;;;36.33;18.00;;;;;;;-0.52;100.00;100449.88;5074901;28;20057;-40
2023/12/05 01:36:11;;;;;;;34.42;17.90;;;;;;;-0.74;100.00;100444.03;5074782;28;20080;-41
2023/12/05 01:38:39;;;;;;;36.40;18.00;;;;;;;-0.76;100.00;100444.06;5074526;28;20045;-40
2023/12/05 01:41:08;;;;;;;33.42;16.95;;;;;;;-0.74;100.00;100431.81;5074449;28;20033;-42
2023/12/05 01:43:37;;;;;;;32.92;18.35;;;;;;;-0.92;100.00;100426.75;5074935;28;20052;-42
2023/12/05 01:46:07;;;;;;;35.65;18.98;;;;;;;-1.05;100.00;100415.56;5074541;28;20145;-40
2023/12/05 01:48:36;;;;;;;35.38;17.95;;;;;;;-1.07;100.00;100411.19;5074486;28;20139;-40
2023/12/05 01:51:09;;;;;;;36.15;18.58;;;;;;;-1.10;100.00;100393.78;5074500;28;20053;-41
2023/12/05 01:53:40;;;;;;;35.78;18.35;;;;;;;-0.92;100.00;100396.22;5074095;28;20060;-41
2023/12/05 01:56:11;;;;;;;38.00;19.38;;;;;;;-1.05;100.00;100399.00;5074380;28;20054;-40
2023/12/05 01:58:39;;;;;;;37.08;18.85;;;;;;;-1.22;100.00;100386.94;5074260;28;20044;-42
2023/12/05 02:01:09;;;;;;;35.45;18.73;;;;;;;-1.07;100.00;100380.66;5074300;28;20055;-42
2023/12/05 02:03:39;;;;;;;38.75;20.08;;;;;;;-1.06;100.00;100385.03;5073987;28;20044;-41
2023/12/05 02:06:10;;;;;;;36.80;18.90;;;;;;;-0.95;100.00;100374.44;5073800;28;20056;-43
2023/12/05 02:08:41;;;;;;;39.55;18.23;;;;;;;-0.78;100.00;100371.59;5074107;28;20045;-41
2023/12/05 02:11:11;;;;;;;35.65;18.83;;;;;;;-0.65;100.00;100374.06;5074062;28;20048;-40
2023/12/05 02:13:43;;;;;;;39.15;19.35;;;;;;;-0.82;100.00;100370.78;5073898;28;20066;-40
2023/12/05 02:16:29;;;;;;;37.13;19.15;;;;;;;-0.95;100.00;100369.19;5073799;28;20049;-41
2023/12/05 02:19:05;;;;;;;36.22;18.52;;;;;;;-0.79;100.00;100349.78;5074103;28;20525;-41
2023/12/05 02:21:41;;;;;;;36.78;19.17;;;;;;;-0.53;100.00;100340.72;5073872;28;20449;-41
2023/12/05 02:24:26;;;;;;;34.78;17.95;;;;;;;-0.57;100.00;100328.56;5071426;28;20448;-41
2023/12/05 02:27:03;;;;;;;34.83;18.35;;;;;;;-0.67;100.00;100320.84;5073586;28;20052;-41
2023/12/05 02:29:33;;;;;;;36.97;20.42;;;;;;;-0.82;100.00;100302.69;5073637;28;20048;-41
2023/12/05 02:32:01;;;;;;;40.95;20.25;;;;;;;-0.74;100.00;100306.06;5073885;28;20044;-41
2023/12/05 02:34:30;;;;;;;37.35;19.70;;;;;;;-0.67;100.00;100296.38;5072432;28;20052;-42
2023/12/05 02:37:08;;;;;;;41.45;21.38;;;;;;;-0.74;100.00;100305.22;5073560;28;20044;-41
2023/12/05 02:39:44;;;;;;;40.38;20.20;;;;;;;-0.65;100.00;100305.09;5073875;28;20044;-40
2023/12/05 02:42:18;;;;;;;38.22;19.35;;;;;;;-0.54;100.00;100295.31;5075701;28;20147;-39
2023/12/05 02:44:52;;;;;;;35.60;18.95;;;;;;;-0.60;100.00;100298.00;5093663;28;20090;-42
2023/12/05 02:47:26;;;;;;;41.47;20.02;;;;;;;-0.61;100.00;100305.00;5093616;28;20460;-41
2023/12/05 02:49:54;;;;;;;39.65;20.10;;;;;;;-0.62;100.00;100305.91;5093415;28;20048;-40
2023/12/05 02:52:24;;;;;;;37.22;19.40;;;;;;;-0.54;100.00;100302.31;5093379;28;20044;-41
2023/12/05 02:54:52;;;;;;;39.65;19.95;;;;;;;-0.45;100.00;100315.28;5093658;28;20052;-42
2023/12/05 02:57:21;;;;;;;41.13;20.67;;;;;;;-0.40;100.00;100311.69;5093692;28;20052;-40
2023/12/05 02:59:50;;;;;;;42.88;20.98;;;;;;;-0.38;100.00;100311.69;5093610;28;20443;-40
2023/12/05 03:02:19;;;;;;;39.00;19.98;;;;;;;-0.37;100.00;100310.81;5093459;28;20044;-41
2023/12/05 03:04:47;;;;;;;35.03;18.92;;;;;;;-0.14;100.00;100313.94;5093255;28;20394;-40
2023/12/05 03:07:16;;;;;;;39.22;19.75;;;;;;;-0.08;100.00;100307.75;5093233;28;20185;-41
2023/12/05 03:09:46;;;;;;;41.60;20.77;;;;;;;-0.22;100.00;100305.31;5093672;28;20040;-41
2023/12/05 03:12:14;;;;;;;36.72;19.63;;;;;;;-0.27;100.00;100304.53;5093450;28;20110;-39
2023/12/05 03:14:43;;;;;;;39.20;20.88;;;;;;;-0.37;100.00;100300.31;5093328;28;20135;-41
2023/12/05 03:17:12;;;;;;;42.78;21.27;;;;;;;-0.40;100.00;100306.44;5093048;28;20048;-42
2023/12/05 03:19:41;;;;;;;39.70;21.35;;;;;;;-0.27;100.00;100307.16;5093858;28;20160;-41
2023/12/05 03:22:12;;;;;;;39.47;20.95;;;;;;;-0.32;100.00;100301.09;5094433;28;20087;-42
2023/12/05 03:24:43;;;;;;;41.67;21.55;;;;;;;-0.37;100.00;100293.31;5093928;28;20090;-42
2023/12/05 03:27:12;;;;;;;41.70;20.95;;;;;;;-0.43;100.00;100284.69;5095284;28;20138;-41
2023/12/05 03:29:40;;;;;;;41.00;21.98;;;;;;;-0.33;100.00;100289.75;5093382;28;20044;-42
2023/12/05 03:32:08;;;;;;;43.85;21.67;;;;;;;-0.30;100.00;100287.06;5093552;28;20113;-43
2023/12/05 03:34:38;;;;;;;42.72;22.27;;;;;;;-0.54;100.00;100286.59;5093798;28;20255;-41
2023/12/05 03:37:06;;;;;;;42.53;20.85;;;;;;;-0.48;100.00;100286.47;5093452;28;20108;-42
2023/12/05 03:39:35;;;;;;;41.40;21.45;;;;;;;-0.38;100.00;100275.88;5092783;28;20048;-41
2023/12/05 03:42:03;;;;;;;43.97;22.08;;;;;;;-0.61;100.00;100276.19;5092810;28;20047;-41
2023/12/05 03:44:31;;;;;;;42.90;21.73;;;;;;;-0.65;100.00;100274.50;5092659;28;20052;-41
2023/12/05 03:46:59;;;;;;;42.72;21.30;;;;;;;-0.56;100.00;100273.53;5092616;28;20411;-41
2023/12/05 03:49:27;;;;;;;44.50;22.10;;;;;;;-0.59;100.00;100273.53;5092702;28;20051;-43
2023/12/05 03:51:57;;;;;;;44.38;22.45;;;;;;;-0.46;100.00;100275.13;5092688;28;20040;-42
2023/12/05 03:54:26;;;;;;;44.03;22.83;;;;;;;-0.75;100.00;100267.69;5092618;28;20563;-42
2023/12/05 03:56:54;;;;;;;46.03;22.90;;;;;;;-0.60;100.00;100272.69;5092361;28;20044;-41
2023/12/05 03:59:22;;;;;;;43.78;21.90;;;;;;;-0.59;100.00;100266.53;5092532;28;20048;-41
2023/12/05 04:01:51;;;;;;;42.65;22.65;;;;;;;-0.69;100.00;100262.31;5091524;28;20079;-41
2023/12/05 04:04:19;;;;;;;47.90;22.42;;;;;;;-0.56;100.00;100259.56;5092310;28;20129;-41
2023/12/05 04:06:48;;;;;;;39.88;21.38;;;;;;;-0.38;100.00;100254.03;5092118;28;20483;-41
2023/12/05 04:09:18;;;;;;;48.03;23.52;;;;;;;-0.34;100.00;100255.72;5092061;28;20181;-40
2023/12/05 04:11:50;;;;;;;43.03;21.65;;;;;;;-0.43;100.00;100250.59;5092504;28;20040;-41
2023/12/05 04:14:19;;;;;;;43.30;22.37;;;;;;;-0.59;100.00;100240.34;5092598;28;20044;-40
2023/12/05 04:16:48;;;;;;;43.28;21.90;;;;;;;-0.43;100.00;100241.00;5092310;28;20283;-41
2023/12/05 04:19:17;;;;;;;43.35;21.33;;;;;;;-0.46;100.00;100245.44;5092176;28;20059;-40
2023/12/05 04:21:45;;;;;;;44.60;23.55;;;;;;;-0.36;100.00;100249.63;5092035;28;20484;-41
2023/12/05 04:24:14;;;;;;;43.90;22.13;;;;;;;-0.30;100.00;100239.91;5091729;28;20148;-42
2023/12/05 04:26:45;;;;;;;43.97;23.05;;;;;;;-0.64;100.00;100233.47;5091694;28;20055;-42
2023/12/05 04:29:13;;;;;;;41.08;21.73;;;;;;;-0.52;100.00;100237.66;5091941;28;20040;-41
2023/12/05 04:31:42;;;;;;;42.33;22.42;;;;;;;-0.45;100.00;100239.28;5092010;28;20055;-40
2023/12/05 04:34:10;;;;;;;44.03;21.73;;;;;;;-0.29;100.00;100243.38;5091848;28;20047;-41
2023/12/05 04:36:38;;;;;;;45.55;21.70;;;;;;;-0.36;100.00;100241.78;5091812;28;20048;-40
2023/12/05 04:39:08;;;;;;;43.72;21.42;;;;;;;-0.33;100.00;100242.56;5091863;28;20059;-42
2023/12/05 04:41:38;;;;;;;44.13;22.13;;;;;;;-0.44;100.00;100241.03;5090434;28;20051;-40
2023/12/05 04:44:08;;;;;;;39.75;21.00;;;;;;;-0.46;100.00;100242.81;5091422;28;20048;-41
2023/12/05 04:46:37;;;;;;;41.88;21.35;;;;;;;-0.56;100.00;100251.69;5090724;28;20075;-41
2023/12/05 04:49:09;;;;;;;42.78;21.48;;;;;;;-0.51;100.00;100249.84;5091497;28;20071;-41
2023/12/05 04:51:40;;;;;;;37.67;19.90;;;;;;;-0.47;100.00;100254.19;5091667;28;20058;-41
2023/12/05 04:54:09;;;;;;;42.72;21.60;;;;;;;-0.51;100.00;100252.47;5091668;28;20093;-43
2023/12/05 04:56:37;;;;;;;41.17;20.92;;;;;;;-0.43;100.00;100243.59;5090310;28;20203;-41
2023/12/05 04:59:06;;;;;;;44.40;21.27;;;;;;;-0.32;100.00;100246.91;5091302;28;20044;-42
2023/12/05 05:01:35;;;;;;;39.92;20.63;;;;;;;-0.13;100.00;100252.72;5090933;28;20048;-42
2023/12/05 05:04:04;;;;;;;43.25;21.33;;;;;;;-0.18;100.00;100244.09;5091084;28;20044;-41
2023/12/05 05:06:33;;;;;;;39.03;20.15;;;;;;;-0.36;100.00;100244.38;5090925;28;20131;-40
2023/12/05 05:09:02;;;;;;;41.97;21.48;;;;;;;-0.37;100.00;100240.03;5091113;28;20051;-41
2023/12/05 05:11:30;;;;;;;42.03;21.77;;;;;;;-0.42;100.00;100244.47;5091220;28;20052;-41
2023/12/05 05:13:59;;;;;;;39.30;20.38;;;;;;;-0.22;100.00;100237.16;5090883;28;20413;-42
2023/12/05 05:16:29;;;;;;;41.85;21.60;;;;;;;-0.35;100.00;100251.38;5091102;28;20044;-41
2023/12/05 05:19:01;;;;;;;41.60;21.25;;;;;;;-0.15;100.00;100249.28;5091911;28;20080;-42
2023/12/05 05:21:29;;;;;;;40.45;21.30;;;;;;;-0.40;100.00;100243.56;5092362;28;20041;-41
2023/12/05 05:23:58;;;;;;;42.38;21.40;;;;;;;-0.16;100.00;100238.81;5092165;28;20050;-44
2023/12/05 05:26:26;;;;;;;43.03;21.15;;;;;;;-0.31;100.00;100237.31;5092501;28;20139;-41
2023/12/05 05:28:55;;;;;;;41.38;21.38;;;;;;;-0.28;100.00;100242.50;5090249;28;20048;-42
2023/12/05 05:31:23;;;;;;;42.50;21.90;;;;;;;-0.45;100.00;100244.53;5092296;28;20048;-41
2023/12/05 05:33:52;;;;;;;41.20;21.35;;;;;;;-0.30;100.00;100234.66;5091657;28;20091;-42
2023/12/05 05:36:22;;;;;;;42.65;20.50;;;;;;;-0.10;100.00;100236.94;5092956;28;20132;-41
2023/12/05 05:38:51;;;;;;;42.88;22.65;;;;;;;-0.20;100.00;100235.38;5091966;28;20048;-41
2023/12/05 05:41:20;;;;;;;43.65;22.52;;;;;;;-0.19;100.00;100238.84;5091897;28;20079;-41
2023/12/05 05:43:48;;;;;;;47.00;23.33;;;;;;;0.01;100.00;100244.66;5091898;28;20074;-41
2023/12/05 05:46:16;;;;;;;46.40;23.13;;;;;;;-0.13;100.00;100237.00;5092091;28;20052;-41
2023/12/05 05:48:46;;;;;;;43.20;21.48;;;;;;;-0.21;100.00;100238.88;5091795;28;20059;-41
2023/12/05 05:51:19;;;;;;;46.05;22.27;;;;;;;-0.28;100.00;100237.28;5092488;28;20048;-47
2023/12/05 05:53:49;;;;;;;;;;;;;;;-0.45;100.00;100239.28;5092297;28;20075;-41
2023/12/05 05:56:17;;;;;;;41.17;20.10;;;;;;;-0.16;100.00;100242.31;5091266;28;19920;-42
2023/12/05 05:58:45;;;;;;;43.20;21.42;;;;;;;0.01;100.00;100246.41;5095302;28;20110;-43
2023/12/05 06:01:14;;;;;;;42.20;22.15;;;;;;;-0.06;100.00;100240.41;5094886;28;20083;-42
2023/12/05 06:03:42;;;;;;;41.55;21.75;;;;;;;-0.03;100.00;100242.97;5095310;28;20055;-42
2023/12/05 06:06:11;;;;;;;44.00;21.83;;;;;;;-0.02;100.00;100245.53;5095191;28;20048;-42
2023/12/05 06:08:39;;;;;;;40.92;20.27;;;;;;;-0.30;100.00;100246.91;5094979;28;20497;-42
2023/12/05 06:11:09;;;;;;;38.03;20.50;;;;;;;-0.20;100.00;100243.22;5095181;28;20354;-41
2023/12/05 06:13:38;;;;;;;43.13;21.20;;;;;;;-0.02;100.00;100245.53;5094938;28;20459;-42
2023/12/05 06:16:07;;;;;;;40.60;21.35;;;;;;;0.10;100.00;100238.38;5094323;28;20052;-42
2023/12/05 06:18:36;;;;;;;40.20;21.73;;;;;;;-0.12;100.00;100249.22;5094877;28;20066;-40
2023/12/05 06:21:05;;;;;;;39.83;21.20;;;;;;;-0.27;100.00;100246.88;5095389;28;20110;-42
2023/12/05 06:23:33;;;;;;;41.40;21.30;;;;;;;-0.20;100.00;100250.22;5096031;28;20044;-40
2023/12/05 06:26:02;;;;;;;39.30;21.08;;;;;;;-0.02;100.00;100260.41;5094397;28;20432;-41
2023/12/05 06:28:33;;;;;;;43.00;22.10;;;;;;;0.01;100.00;100251.66;5093738;28;20043;-42
2023/12/05 06:31:02;;;;;;;40.22;20.95;;;;;;;0.12;100.00;100262.81;5094054;28;20044;-40
2023/12/05 06:33:31;;;;;;;39.67;20.00;;;;;;;0.05;100.00;100262.06;5094004;28;20047;-40
2023/12/05 06:36:00;;;;;;;38.60;21.02;;;;;;;-0.09;100.00;100257.06;5092866;28;20127;-42
2023/12/05 06:38:29;;;;;;;40.30;20.83;;;;;;;-0.21;100.00;100254.63;5092903;28;20070;-40
2023/12/05 06:40:59;;;;;;;46.22;21.45;;;;;;;-0.42;100.00;100262.81;5093146;28;20044;-41
2023/12/05 06:43:32;;;;;;;38.28;20.60;;;;;;;-0.48;100.00;100257.66;5095012;28;20086;-41
2023/12/05 06:46:02;;;;;;;39.83;20.38;;;;;;;-0.27;100.00;100265.22;5095222;28;20047;-42
2023/12/05 06:48:33;;;;;;;42.40;19.92;;;;;;;-0.27;100.00;100259.09;5094821;28;20084;-45
2023/12/05 06:51:02;;;;;;;39.08;20.20;;;;;;;-0.20;100.00;100250.22;5093460;28;20505;-40
2023/12/05 06:53:33;;;;;;;39.75;20.23;;;;;;;-0.15;100.00;100249.28;5088784;28;20063;-41
2023/12/05 06:56:07;;;;;;;43.95;22.13;;;;;;;-0.15;100.00;100249.28;5088102;28;20151;-41
2023/12/05 06:58:37;;;;;;;46.00;22.05;;;;;;;-0.22;100.00;100252.88;5093614;28;20043;-41
2023/12/05 07:01:06;;;;;;;42.55;21.08;;;;;;;-0.33;100.00;100246.94;5093543;28;20568;-41
2023/12/05 07:03:35;;;;;;;41.08;21.85;;;;;;;-0.49;100.00;100248.06;5091833;28;20054;-41
2023/12/05 07:06:15;;;;;;;39.30;19.70;;;;;;;-0.52;100.00;100253.38;5093031;28;20044;-44
2023/12/05 07:08:43;;;;;;;41.65;21.35;;;;;;;-0.56;100.00;100257.81;5092398;28;20528;-42
2023/12/05 07:11:12;;;;;;;42.33;20.83;;;;;;;-0.43;100.00;100259.34;5085273;28;20493;-40
2023/12/05 07:13:41;;;;;;;43.85;21.42;;;;;;;-0.52;100.00;100258.59;5073959;28;20063;-40
2023/12/05 07:16:11;;;;;;;42.13;22.60;;;;;;;-0.41;100.00;100251.44;5092302;28;20043;-42
2023/12/05 07:18:40;;;;;;;42.95;21.30;;;;;;;-0.23;100.00;100260.78;5092399;28;20206;-41
2023/12/05 07:21:09;;;;;;;39.13;20.20;;;;;;;-0.09;100.00;100264.91;5091170;28;20040;-42
2023/12/05 07:23:38;;;;;;;45.40;23.02;;;;;;;-0.24;100.00;100267.78;5091390;28;20075;-43
2023/12/05 07:26:08;;;;;;;44.63;22.08;;;;;;;-0.20;100.00;100277.31;5092063;28;20117;-42
2023/12/05 07:28:37;;;;;;;42.80;21.05;;;;;;;-0.22;100.00;100281.72;5091981;28;20495;-42
2023/12/05 07:31:07;;;;;;;42.10;22.40;;;;;;;-0.23;100.00;100282.63;5092459;28;20101;-41
2023/12/05 07:33:35;;;;;;;42.22;20.63;;;;;;;-0.22;100.00;100283.47;5090708;28;20424;-46
2023/12/05 07:36:05;;;;;;;44.63;20.85;;;;;;;-0.06;100.00;100275.34;5091653;28;20058;-41
2023/12/05 07:38:33;;;;;;;41.22;21.98;;;;;;;-0.12;100.00;100279.81;5091266;28;20048;-42
2023/12/05 07:41:02;;;;;;;47.15;21.85;;;;;;;-0.05;100.00;100279.69;5091236;28;20044;-42
2023/12/05 07:43:32;;;;;;;44.28;21.73;;;;;;;0.05;100.00;100279.53;5090570;28;20129;-41
2023/12/05 07:46:00;;;;;;;40.35;21.10;;;;;;;0.04;100.00;100280.44;5089299;28;20055;-40
2023/12/05 07:48:30;;;;;;;41.60;20.40;;;;;;;-0.12;100.00;100280.69;5090934;28;20048;-42
2023/12/05 07:50:58;;;;;;;42.15;21.98;;;;;;;-0.07;100.00;100278.00;5091166;28;20131;-43
2023/12/05 07:53:29;;;;;;;40.33;19.50;;;;;;;-0.07;100.00;100278.00;5089933;28;20523;-40
2023/12/05 07:55:58;;;;;;;45.45;20.50;;;;;;;-0.11;100.00;100281.53;5091290;28;20072;-42
2023/12/05 07:58:27;;;;;;;41.80;21.63;;;;;;;0.02;100.00;100274.38;5090552;28;20043;-40
2023/12/05 08:00:55;;;;;;;44.03;21.45;;;;;;;0.08;100.00;100269.84;5091014;28;20040;-41
2023/12/05 08:03:24;;;;;;;37.35;19.63;;;;;;;-0.06;100.00;100264.84;5089987;28;20048;-40
2023/12/05 08:05:54;;;;;;;41.95;20.33;;;;;;;-0.08;100.00;100255.28;5090570;28;20083;-41
2023/12/05 08:08:23;;;;;;;45.78;20.05;;;;;;;-0.02;100.00;100261.28;5090863;28;20085;-42
2023/12/05 08:10:52;;;;;;;42.72;20.27;;;;;;;0.09;100.00;100266.34;5090759;28;20580;-40
2023/12/05 08:13:20;;;;;;;42.00;19.98;;;;;;;0.05;100.00;100255.94;5089370;28;20175;-42
2023/12/05 08:15:48;;;;;;;41.47;21.25;;;;;;;0.10;100.00;100260.22;5090309;28;20040;-41
2023/12/05 08:18:17;;;;;;;39.30;20.63;;;;;;;0.18;100.00;100270.56;5090603;28;20498;-41
2023/12/05 08:20:45;;;;;;;42.50;21.17;;;;;;;0.02;100.00;100267.34;5089167;28;20051;-41
2023/12/05 08:23:15;;;;;;;40.88;21.75;;;;;;;0.21;100.00;100265.28;5090362;28;20044;-41
2023/12/05 08:25:49;;;;;;;43.58;21.60;;;;;;;0.29;100.00;100255.53;5089395;28;20055;-41
2023/12/05 08:28:19;;;;;;;42.17;21.80;;;;;;;0.18;100.00;100260.94;5090185;28;20044;-41
2023/12/05 08:30:47;;;;;;;44.92;21.63;;;;;;;0.07;100.00;100269.88;5089829;28;20146;-42
2023/12/05 08:33:16;;;;;;;43.67;21.27;;;;;;;-0.05;100.00;100266.59;5090662;28;20044;-40
2023/12/05 08:35:45;;;;;;;39.75;20.92;;;;;;;-0.06;100.00;100264.84;5088971;28;20352;-42
2023/12/05 08:38:15;;;;;;;45.67;22.02;;;;;;;0.09;100.00;100278.59;5090459;28;20135;-43
2023/12/05 08:40:45;;;;;;;45.83;20.05;;;;;;;0.12;100.00;100273.31;5090443;28;20123;-41
2023/12/05 08:43:14;;;;;;;46.13;21.65;;;;;;;0.06;100.00;100276.03;5089975;28;20044;-41
2023/12/05 08:45:43;;;;;;;45.30;22.13;;;;;;;0.16;100.00;100280.22;5089110;28;20135;-42
2023/12/05 08:48:11;;;;;;;46.88;23.13;;;;;;;0.10;100.00;100275.09;5089978;28;20512;-42
2023/12/05 08:50:41;;;;;;;48.83;23.00;;;;;;;0.10;100.00;100269.84;5089048;28;20060;-41
2023/12/05 08:53:09;;;;;;;43.40;22.83;;;;;;;0.13;100.00;100277.66;5090276;28;20048;-41
2023/12/05 08:55:41;;;;;;;43.25;21.67;;;;;;;0.10;100.00;100272.47;5088237;28;20553;-41
2023/12/05 08:58:09;;;;;;;45.25;22.00;;;;;;;0.07;100.00;100260.25;5090106;28;21172;-42
2023/12/05 09:00:40;;;;;;;44.92;21.52;;;;;;;0.06;100.00;100269.03;5089854;28;20521;-41
2023/12/05 09:03:09;;;;;;;41.78;21.50;;;;;;;0.14;100.00;100271.53;5090116;28;20447;-40
2023/12/05 09:05:38;;;;;;;43.47;21.88;;;;;;;0.06;100.00;100262.91;5088338;28;20056;-40
2023/12/05 09:08:06;;;;;;;43.58;21.98;;;;;;;0.04;100.00;100254.22;5089695;28;20055;-42
2023/12/05 09:10:34;;;;;;;47.40;23.52;;;;;;;0.02;100.00;100256.88;5089860;28;20153;-42
2023/12/05 09:13:04;;;;;;;43.00;22.33;;;;;;;0.11;100.00;100256.72;5089882;28;20084;-41
2023/12/05 09:15:32;;;;;;;40.45;20.80;;;;;;;0.24;100.00;100252.97;5087098;28;20134;-40
2023/12/05 09:18:00;;;;;;;45.53;22.42;;;;;;;0.17;100.00;100261.84;5089613;28;20496;-41
2023/12/05 09:20:29;;;;;;;41.35;21.67;;;;;;;0.23;100.00;100271.38;5089821;28;20056;-41
2023/12/05 09:22:57;;;;;;;44.72;22.52;;;;;;;0.18;100.00;100268.81;5090403;28;20067;-45
2023/12/05 09:25:29;;;;;;;44.35;22.67;;;;;;;0.37;100.00;100269.34;5089126;28;20079;-42
2023/12/05 09:28:00;;;;;;;47.80;22.73;;;;;;;0.32;100.00;100267.72;5089862;28;20064;-44
2023/12/05 09:30:30;;;;;;;43.78;23.35;;;;;;;0.20;100.00;100263.56;5090548;28;20070;-42
2023/12/05 09:32:58;;;;;;;41.20;21.30;;;;;;;0.04;100.00;100252.47;5092298;28;20104;-41
2023/12/05 09:35:27;;;;;;;44.38;22.73;;;;;;;0.32;100.00;100259.84;5093310;28;20051;-42
2023/12/05 09:37:56;;;;;;;49.22;25.58;;;;;;;0.44;100.00;100255.22;5094457;28;20050;-40
2023/12/05 09:40:24;;;;;;;46.25;23.80;;;;;;;0.66;100.00;100252.19;5093642;28;20052;-43
2023/12/05 09:42:55;;;;;;;45.08;23.42;;;;;;;0.39;100.00;100240.47;5093371;28;20105;-41
2023/12/05 09:45:33;;;;;;;42.63;21.58;;;;;;;0.21;100.00;100239.06;5092246;28;20040;-42
2023/12/05 09:48:04;;;;;;;45.72;23.60;;;;;;;0.31;100.00;100230.13;5093580;28;20050;-42
2023/12/05 09:50:33;;;;;;;47.60;22.58;;;;;;;0.39;100.00;100236.09;5093011;28;20051;-42
2023/12/05 09:53:02;;;;;;;46.00;23.00;;;;;;;0.45;100.00;100240.34;5093388;28;20101;-41
2023/12/05 09:55:31;;;;;;;45.03;23.25;;;;;;;0.53;100.00;100234.06;5092131;28;20051;-42
2023/12/05 09:58:00;;;;;;;44.45;22.42;;;;;;;0.33;100.00;100225.69;5092930;28;20430;-41
2023/12/05 10:00:30;;;;;;;42.50;22.23;;;;;;;0.39;100.00;100230.84;5093642;28;20082;-41
2023/12/05 10:03:03;;;;;;;43.03;22.60;;;;;;;0.39;100.00;100228.22;5093156;28;20052;-41
2023/12/05 10:05:35;;;;;;;43.25;21.92;;;;;;;0.32;100.00;100216.09;5092122;28;20056;-41
2023/12/05 10:08:04;;;;;;;41.20;21.95;;;;;;;0.25;100.00;100211.84;5092354;28;20067;-41
2023/12/05 10:10:35;;;;;;;47.42;22.70;;;;;;;0.25;100.00;100210.09;5093025;28;20142;-42
2023/12/05 10:13:03;;;;;;;43.17;22.70;;;;;;;0.24;100.00;100216.25;5092970;28;20044;-40
2023/12/05 10:15:35;;;;;;;43.92;23.25;;;;;;;0.22;100.00;100210.16;5091965;28;20052;-41
2023/12/05 10:18:04;;;;;;;43.83;22.60;;;;;;;0.20;100.00;100197.97;5084869;28;20044;-41
2023/12/05 10:20:32;;;;;;;48.45;24.15;;;;;;;0.29;100.00;100197.81;5093182;28;20048;-39
2023/12/05 10:23:01;;;;;;;46.65;23.75;;;;;;;0.32;100.00;100192.47;5092641;28;20052;-40
2023/12/05 10:25:29;;;;;;;47.75;23.73;;;;;;;0.28;100.00;100183.78;5091238;28;20052;-41
2023/12/05 10:28:02;;;;;;;41.78;22.55;;;;;;;0.38;100.00;100176.59;5092932;28;20058;-40
2023/12/05 10:30:37;;;;;;;43.03;21.35;;;;;;;0.36;100.00;100174.91;5084596;28;20090;-42
2023/12/05 10:33:14;;;;;;;47.80;23.80;;;;;;;0.39;100.00;100183.59;5093020;28;20131;-42
2023/12/05 10:35:45;;;;;;;44.72;22.73;;;;;;;0.38;100.00;100181.84;5091593;28;20078;-40
2023/12/05 10:38:17;;;;;;;43.33;22.83;;;;;;;0.40;100.00;100177.47;5092540;28;20051;-42
2023/12/05 10:40:53;;;;;;;45.60;22.67;;;;;;;0.55;100.00;100171.88;5092410;28;20055;-41
2023/12/05 10:43:23;;;;;;;46.22;22.58;;;;;;;0.53;100.00;100176.31;5091185;28;20044;-42
2023/12/05 10:45:54;;;;;;;42.10;22.33;;;;;;;0.52;100.00;100169.34;5091272;28;20580;-41
2023/12/05 10:48:24;;;;;;;43.13;23.07;;;;;;;0.46;100.00;100169.44;5091886;28;20055;-40
2023/12/05 10:50:53;;;;;;;40.20;21.30;;;;;;;0.52;100.00;100164.09;5092017;28;20156;-43
2023/12/05 10:53:21;;;;;;;46.05;22.90;;;;;;;0.60;100.00;100160.44;5092173;28;20473;-41
2023/12/05 10:55:49;;;;;;;46.17;23.73;;;;;;;0.68;100.00;100154.13;5092129;28;20130;-42
2023/12/05 10:58:19;;;;;;;44.70;21.83;;;;;;;0.84;100.00;100147.63;5092491;28;20489;-40
2023/12/05 11:00:49;;;;;;;45.47;22.77;;;;;;;0.72;100.00;100140.03;5092556;28;20401;-41
2023/12/05 11:03:20;;;;;;;40.45;22.10;;;;;;;0.97;100.00;100145.63;5091722;28;20055;-41
2023/12/05 11:05:48;;;;;;;45.92;22.73;;;;;;;0.97;100.00;100150.88;5089774;28;20123;-40
2023/12/05 11:08:17;;;;;;;45.15;22.75;;;;;;;0.91;100.00;100152.75;5091616;28;20109;-41
2023/12/05 11:10:46;;;;;;;44.88;22.05;;;;;;;0.86;100.00;100158.09;5091803;28;20097;-41
2023/12/05 11:13:16;;;;;;;45.00;23.95;;;;;;;0.72;100.00;100153.16;5091814;28;20463;-43
2023/12/05 11:15:45;;;;;;;41.63;21.30;;;;;;;0.83;100.00;100159.03;5089641;28;20462;-42